This is the latest recevied weather packets stored in our database for station/object KB3VSP. If no packets are shown the sender has not sent any weather packets the latest 10 day(s).
| Time | Temp. | Humidity | Pressure | Rain* | Wind** | Luminosity | Snow |
|---|---|---|---|---|---|---|---|
| 1777925821 | 22.22° C | 49% | 1007.6 hPa | 0 mm | - | 62 W/m² | - |
| 1777925518 | 22.22° C | 49% | 1007 hPa | 0 mm | - | 149 W/m² | - |
| 1777925216 | 22.22° C | 49% | 1007.3 hPa | 0 mm | - | 90 W/m² | - |
| 1777924912 | 22.22° C | 48% | 1007.4 hPa | 0 mm | - | 248 W/m² | - |
| 1777924608 | 22.22° C | 48% | 1007.7 hPa | 0 mm | - | 231 W/m² | - |
| 1777924304 | 21.67° C | 50% | 1007.6 hPa | 0 mm | - | 437 W/m² | - |
| 1777924001 | 21.67° C | 49% | 1007.7 hPa | 0 mm | - | 247 W/m² | - |
| 1777923697 | 21.67° C | 49% | 1007.8 hPa | 0 mm | - | 94 W/m² | - |
| 1777923393 | 22.22° C | 48% | 1007.7 hPa | 0 mm | - | 261 W/m² | - |
| 1777923092 | 22.22° C | 48% | 1007.7 hPa | 0 mm | - | 230 W/m² | - |
| 1777922789 | 21.67° C | 52% | 1007.9 hPa | 0 mm | - | 451 W/m² | - |
| 1777922487 | 22.22° C | 49% | 1008 hPa | 0 mm | - | 505 W/m² | - |
| 1777922186 | 22.22° C | 49% | 1008 hPa | 0 mm | - | 605 W/m² | - |
| 1777921881 | 21.67° C | 49% | 1008.1 hPa | 0 mm | - | 595 W/m² | - |
| 1777921578 | 21.67° C | 49% | 1008 hPa | 0 mm | - | 378 W/m² | - |
| 1777921274 | 21.11° C | 51% | 1007.9 hPa | 0 mm | - | 683 W/m² | - |
| 1777920971 | 20.56° C | 52% | 1008 hPa | 0 mm | - | 100 W/m² | - |
| 1777920668 | 20.56° C | 52% | 1008.2 hPa | 0 mm | - | 467 W/m² | - |
| 1777920363 | 20.56° C | 52% | 1008.4 hPa | 0 mm | - | 152 W/m² | - |
| 1777920058 | 21.11° C | 51% | 1008.2 hPa | 0 mm | - | 119 W/m² | - |
| 1777919756 | 20.56° C | 50% | 1008.3 hPa | 0 mm | - | 669 W/m² | - |
| 1777919454 | 20.56° C | 51% | 1008.4 hPa | 0 mm | - | 271 W/m² | - |
| 1777919150 | 21.11° C | 50% | 1008.3 hPa | 0 mm | - | 164 W/m² | - |
| 1777918848 | 20.56° C | 50% | 1008.6 hPa | 0 mm | - | 379 W/m² | - |
| 1777918545 | 20.56° C | 50% | 1008.5 hPa | 0 mm | - | 699 W/m² | - |
* Rain latest hour (hover to see other rain measurements)
** Current wind speed in m/s (hover to see current wind gust speed)